sensor_id;sensor_type;location;lat;lon;timestamp;temperature;humidity
4635;DHT22;2330;48.158;11.816;2023-11-19T00:00:09;4.40;98.50
4635;DHT22;2330;48.158;11.816;2023-11-19T00:02:40;4.40;98.50
4635;DHT22;2330;48.158;11.816;2023-11-19T00:05:08;4.50;98.50
4635;DHT22;2330;48.158;11.816;2023-11-19T00:07:39;4.60;98.50
4635;DHT22;2330;48.158;11.816;2023-11-19T00:10:12;4.60;98.50
4635;DHT22;2330;48.158;11.816;2023-11-19T00:12:44;4.60;98.50
4635;DHT22;2330;48.158;11.816;2023-11-19T00:15:12;4.60;98.50
4635;DHT22;2330;48.158;11.816;2023-11-19T00:17:40;4.60;98.50
4635;DHT22;2330;48.158;11.816;2023-11-19T00:20:12;4.60;98.50
4635;DHT22;2330;48.158;11.816;2023-11-19T00:22:39;4.60;98.50
4635;DHT22;2330;48.158;11.816;2023-11-19T00:25:15;4.60;98.50
4635;DHT22;2330;48.158;11.816;2023-11-19T00:27:42;4.60;98.50
4635;DHT22;2330;48.158;11.816;2023-11-19T00:30:11;4.60;98.50
4635;DHT22;2330;48.158;11.816;2023-11-19T00:32:39;4.50;98.50
4635;DHT22;2330;48.158;11.816;2023-11-19T00:35:06;4.60;98.50
4635;DHT22;2330;48.158;11.816;2023-11-19T00:37:34;4.60;98.50
4635;DHT22;2330;48.158;11.816;2023-11-19T00:40:01;4.60;98.50
4635;DHT22;2330;48.158;11.816;2023-11-19T00:42:32;4.60;98.50
4635;DHT22;2330;48.158;11.816;2023-11-19T00:44:58;4.80;98.50
4635;DHT22;2330;48.158;11.816;2023-11-19T00:47:25;4.80;98.50
4635;DHT22;2330;48.158;11.816;2023-11-19T00:49:52;4.90;98.50
4635;DHT22;2330;48.158;11.816;2023-11-19T00:52:19;4.90;98.50
4635;DHT22;2330;48.158;11.816;2023-11-19T00:54:46;4.90;98.50
4635;DHT22;2330;48.158;11.816;2023-11-19T00:57:12;4.90;98.50
4635;DHT22;2330;48.158;11.816;2023-11-19T00:59:42;4.90;98.50
4635;DHT22;2330;48.158;11.816;2023-11-19T01:02:09;5.00;98.50
4635;DHT22;2330;48.158;11.816;2023-11-19T01:04:36;5.00;98.50
4635;DHT22;2330;48.158;11.816;2023-11-19T01:07:04;5.00;98.50
4635;DHT22;2330;48.158;11.816;2023-11-19T01:09:31;5.10;98.50
4635;DHT22;2330;48.158;11.816;2023-11-19T01:12:02;5.20;98.50
4635;DHT22;2330;48.158;11.816;2023-11-19T01:14:29;5.20;98.50
4635;DHT22;2330;48.158;11.816;2023-11-19T01:16:56;5.10;98.50
4635;DHT22;2330;48.158;11.816;2023-11-19T01:19:24;5.10;98.50
4635;DHT22;2330;48.158;11.816;2023-11-19T01:21:51;5.10;98.50
4635;DHT22;2330;48.158;11.816;2023-11-19T01:24:18;5.20;98.50
4635;DHT22;2330;48.158;11.816;2023-11-19T01:26:45;5.10;98.50
4635;DHT22;2330;48.158;11.816;2023-11-19T01:29:13;5.20;98.50
4635;DHT22;2330;48.158;11.816;2023-11-19T01:31:41;5.20;98.50
4635;DHT22;2330;48.158;11.816;2023-11-19T01:34:08;5.20;98.50
4635;DHT22;2330;48.158;11.816;2023-11-19T01:36:35;5.30;98.50
4635;DHT22;2330;48.158;11.816;2023-11-19T01:39:02;5.30;98.50
4635;DHT22;2330;48.158;11.816;2023-11-19T01:41:34;5.40;98.50
4635;DHT22;2330;48.158;11.816;2023-11-19T01:44:02;5.50;98.50
4635;DHT22;2330;48.158;11.816;2023-11-19T01:46:30;5.50;98.50
4635;DHT22;2330;48.158;11.816;2023-11-19T01:49:00;5.50;98.50
4635;DHT22;2330;48.158;11.816;2023-11-19T01:51:27;5.60;98.50
4635;DHT22;2330;48.158;11.816;2023-11-19T01:53:55;5.60;98.50
4635;DHT22;2330;48.158;11.816;2023-11-19T01:56:24;5.60;98.50
4635;DHT22;2330;48.158;11.816;2023-11-19T01:58:52;5.60;98.50
4635;DHT22;2330;48.158;11.816;2023-11-19T02:01:20;5.70;98.50
4635;DHT22;2330;48.158;11.816;2023-11-19T02:03:48;5.60;98.50
4635;DHT22;2330;48.158;11.816;2023-11-19T02:06:15;5.60;98.50
4635;DHT22;2330;48.158;11.816;2023-11-19T02:08:42;5.60;98.50
4635;DHT22;2330;48.158;11.816;2023-11-19T02:11:10;5.60;98.50
4635;DHT22;2330;48.158;11.816;2023-11-19T02:13:38;5.60;98.50
4635;DHT22;2330;48.158;11.816;2023-11-19T02:16:06;5.70;98.50
4635;DHT22;2330;48.158;11.816;2023-11-19T02:18:33;5.70;98.50
4635;DHT22;2330;48.158;11.816;2023-11-19T02:21:00;5.70;98.50
4635;DHT22;2330;48.158;11.816;2023-11-19T02:23:27;5.70;98.50
4635;DHT22;2330;48.158;11.816;2023-11-19T02:28:41;5.70;98.50
4635;DHT22;2330;48.158;11.816;2023-11-19T02:31:10;5.80;98.50
4635;DHT22;2330;48.158;11.816;2023-11-19T02:33:37;5.80;98.50
4635;DHT22;2330;48.158;11.816;2023-11-19T02:36:05;5.90;98.50
4635;DHT22;2330;48.158;11.816;2023-11-19T02:38:34;5.90;98.50
4635;DHT22;2330;48.158;11.816;2023-11-19T02:41:06;5.80;98.50
4635;DHT22;2330;48.158;11.816;2023-11-19T02:43:34;5.80;98.50
4635;DHT22;2330;48.158;11.816;2023-11-19T02:46:04;5.90;98.50
4635;DHT22;2330;48.158;11.816;2023-11-19T02:48:36;5.80;98.50
4635;DHT22;2330;48.158;11.816;2023-11-19T02:51:04;5.90;98.50
4635;DHT22;2330;48.158;11.816;2023-11-19T02:53:31;5.90;98.50
4635;DHT22;2330;48.158;11.816;2023-11-19T02:55:58;6.00;98.50
4635;DHT22;2330;48.158;11.816;2023-11-19T02:58:32;6.00;98.50
4635;DHT22;2330;48.158;11.816;2023-11-19T03:01:01;6.10;98.50
4635;DHT22;2330;48.158;11.816;2023-11-19T03:03:39;6.10;98.50
4635;DHT22;2330;48.158;11.816;2023-11-19T03:06:07;6.00;98.50
4635;DHT22;2330;48.158;11.816;2023-11-19T03:08:36;6.10;98.50
4635;DHT22;2330;48.158;11.816;2023-11-19T03:11:02;6.10;98.50
4635;DHT22;2330;48.158;11.816;2023-11-19T03:13:31;6.10;98.50
4635;DHT22;2330;48.158;11.816;2023-11-19T03:15:58;6.10;98.50
4635;DHT22;2330;48.158;11.816;2023-11-19T03:18:25;6.10;98.50
4635;DHT22;2330;48.158;11.816;2023-11-19T03:20:52;6.10;98.50
4635;DHT22;2330;48.158;11.816;2023-11-19T03:23:19;6.20;98.50
4635;DHT22;2330;48.158;11.816;2023-11-19T03:25:45;6.30;98.50
4635;DHT22;2330;48.158;11.816;2023-11-19T03:28:12;6.30;98.50
4635;DHT22;2330;48.158;11.816;2023-11-19T03:30:40;6.30;98.50
4635;DHT22;2330;48.158;11.816;2023-11-19T03:33:06;6.30;98.50
4635;DHT22;2330;48.158;11.816;2023-11-19T03:35:33;6.30;98.50
4635;DHT22;2330;48.158;11.816;2023-11-19T03:38:00;6.30;98.50
4635;DHT22;2330;48.158;11.816;2023-11-19T03:40:28;6.30;98.50
4635;DHT22;2330;48.158;11.816;2023-11-19T03:42:58;6.30;98.50
4635;DHT22;2330;48.158;11.816;2023-11-19T03:45:25;6.30;98.50
4635;DHT22;2330;48.158;11.816;2023-11-19T03:47:52;6.30;98.50
4635;DHT22;2330;48.158;11.816;2023-11-19T03:50:19;6.30;98.50
4635;DHT22;2330;48.158;11.816;2023-11-19T03:52:49;6.40;98.50
4635;DHT22;2330;48.158;11.816;2023-11-19T03:55:16;6.40;98.50
4635;DHT22;2330;48.158;11.816;2023-11-19T03:57:43;6.30;98.50
4635;DHT22;2330;48.158;11.816;2023-11-19T04:00:10;6.40;98.50
4635;DHT22;2330;48.158;11.816;2023-11-19T04:02:37;6.40;98.50
4635;DHT22;2330;48.158;11.816;2023-11-19T04:05:04;6.40;98.50
4635;DHT22;2330;48.158;11.816;2023-11-19T04:07:32;6.40;98.50
4635;DHT22;2330;48.158;11.816;2023-11-19T04:09:59;6.40;98.50
4635;DHT22;2330;48.158;11.816;2023-11-19T04:12:26;6.40;98.50
4635;DHT22;2330;48.158;11.816;2023-11-19T04:14:53;6.50;98.50
4635;DHT22;2330;48.158;11.816;2023-11-19T04:17:22;6.50;98.50
4635;DHT22;2330;48.158;11.816;2023-11-19T04:19:49;6.60;98.50
4635;DHT22;2330;48.158;11.816;2023-11-19T04:22:17;6.60;98.50
4635;DHT22;2330;48.158;11.816;2023-11-19T04:24:43;6.50;98.50
4635;DHT22;2330;48.158;11.816;2023-11-19T04:27:12;6.50;98.50
4635;DHT22;2330;48.158;11.816;2023-11-19T04:29:39;6.50;98.50
4635;DHT22;2330;48.158;11.816;2023-11-19T04:32:06;6.50;98.50
4635;DHT22;2330;48.158;11.816;2023-11-19T04:34:33;6.60;98.50
4635;DHT22;2330;48.158;11.816;2023-11-19T04:36:59;6.60;98.50
4635;DHT22;2330;48.158;11.816;2023-11-19T04:39:32;6.60;98.50
4635;DHT22;2330;48.158;11.816;2023-11-19T04:41:59;6.70;98.50
4635;DHT22;2330;48.158;11.816;2023-11-19T04:44:26;6.80;98.50
4635;DHT22;2330;48.158;11.816;2023-11-19T04:46:53;6.80;98.50
4635;DHT22;2330;48.158;11.816;2023-11-19T04:49:20;6.80;98.50
4635;DHT22;2330;48.158;11.816;2023-11-19T04:51:47;6.80;98.50
4635;DHT22;2330;48.158;11.816;2023-11-19T04:54:14;6.90;98.50
4635;DHT22;2330;48.158;11.816;2023-11-19T04:56:45;6.90;98.50
4635;DHT22;2330;48.158;11.816;2023-11-19T04:59:12;7.00;98.50
4635;DHT22;2330;48.158;11.816;2023-11-19T05:01:39;7.00;98.50
4635;DHT22;2330;48.158;11.816;2023-11-19T05:04:07;7.00;98.50
4635;DHT22;2330;48.158;11.816;2023-11-19T05:06:34;7.00;98.50
4635;DHT22;2330;48.158;11.816;2023-11-19T05:09:02;7.00;98.50
4635;DHT22;2330;48.158;11.816;2023-11-19T05:11:34;7.10;98.50
4635;DHT22;2330;48.158;11.816;2023-11-19T05:14:03;7.10;98.50
4635;DHT22;2330;48.158;11.816;2023-11-19T05:16:32;7.10;98.50
4635;DHT22;2330;48.158;11.816;2023-11-19T05:18:59;7.20;98.50
4635;DHT22;2330;48.158;11.816;2023-11-19T05:21:26;7.20;98.50
4635;DHT22;2330;48.158;11.816;2023-11-19T05:23:53;7.30;98.50
4635;DHT22;2330;48.158;11.816;2023-11-19T05:26:22;7.30;98.50
4635;DHT22;2330;48.158;11.816;2023-11-19T05:28:50;7.40;98.50
4635;DHT22;2330;48.158;11.816;2023-11-19T05:31:17;7.40;98.50
4635;DHT22;2330;48.158;11.816;2023-11-19T05:33:44;7.50;98.50
4635;DHT22;2330;48.158;11.816;2023-11-19T05:36:12;7.70;98.50
4635;DHT22;2330;48.158;11.816;2023-11-19T05:38:42;7.70;98.50
4635;DHT22;2330;48.158;11.816;2023-11-19T05:41:08;8.00;98.50
4635;DHT22;2330;48.158;11.816;2023-11-19T05:43:35;8.20;98.50
4635;DHT22;2330;48.158;11.816;2023-11-19T05:46:03;8.30;98.50
4635;DHT22;2330;48.158;11.816;2023-11-19T05:48:44;8.60;98.50
4635;DHT22;2330;48.158;11.816;2023-11-19T05:51:13;8.70;98.50
4635;DHT22;2330;48.158;11.816;2023-11-19T05:53:41;8.80;98.50
4635;DHT22;2330;48.158;11.816;2023-11-19T05:56:09;8.80;98.50
4635;DHT22;2330;48.158;11.816;2023-11-19T05:58:36;8.90;98.50
4635;DHT22;2330;48.158;11.816;2023-11-19T06:01:05;8.90;98.50
4635;DHT22;2330;48.158;11.816;2023-11-19T06:03:34;9.00;98.50
4635;DHT22;2330;48.158;11.816;2023-11-19T06:06:01;9.00;98.50
4635;DHT22;2330;48.158;11.816;2023-11-19T06:08:28;9.00;98.50
4635;DHT22;2330;48.158;11.816;2023-11-19T06:10:54;9.10;98.50
4635;DHT22;2330;48.158;11.816;2023-11-19T06:13:21;9.10;98.50
4635;DHT22;2330;48.158;11.816;2023-11-19T06:15:51;9.10;98.50
4635;DHT22;2330;48.158;11.816;2023-11-19T06:18:18;9.10;98.50
4635;DHT22;2330;48.158;11.816;2023-11-19T06:20:47;9.10;98.50
4635;DHT22;2330;48.158;11.816;2023-11-19T06:23:14;9.10;98.50
4635;DHT22;2330;48.158;11.816;2023-11-19T06:25:40;9.20;98.50
4635;DHT22;2330;48.158;11.816;2023-11-19T06:28:07;9.30;98.50
4635;DHT22;2330;48.158;11.816;2023-11-19T06:30:34;9.30;98.50
4635;DHT22;2330;48.158;11.816;2023-11-19T06:33:02;9.20;98.50
4635;DHT22;2330;48.158;11.816;2023-11-19T06:35:30;9.20;98.50
4635;DHT22;2330;48.158;11.816;2023-11-19T06:38:03;9.30;98.50
4635;DHT22;2330;48.158;11.816;2023-11-19T06:40:34;9.20;98.50
4635;DHT22;2330;48.158;11.816;2023-11-19T06:43:03;9.30;98.50
4635;DHT22;2330;48.158;11.816;2023-11-19T06:45:31;9.30;98.50
4635;DHT22;2330;48.158;11.816;2023-11-19T06:47:58;9.30;98.50
4635;DHT22;2330;48.158;11.816;2023-11-19T06:50:27;9.30;98.50
4635;DHT22;2330;48.158;11.816;2023-11-19T06:52:54;9.40;98.50
4635;DHT22;2330;48.158;11.816;2023-11-19T06:55:21;9.40;98.50
4635;DHT22;2330;48.158;11.816;2023-11-19T06:57:48;9.30;98.50
4635;DHT22;2330;48.158;11.816;2023-11-19T07:00:15;9.40;98.50
4635;DHT22;2330;48.158;11.816;2023-11-19T07:02:42;9.40;98.50
4635;DHT22;2330;48.158;11.816;2023-11-19T07:05:11;9.40;98.50
4635;DHT22;2330;48.158;11.816;2023-11-19T07:07:39;9.40;98.50
4635;DHT22;2330;48.158;11.816;2023-11-19T07:10:07;9.50;98.50
4635;DHT22;2330;48.158;11.816;2023-11-19T07:12:36;9.50;98.50
4635;DHT22;2330;48.158;11.816;2023-11-19T07:15:03;9.60;98.50
4635;DHT22;2330;48.158;11.816;2023-11-19T07:17:31;9.60;98.50
4635;DHT22;2330;48.158;11.816;2023-11-19T07:19:58;9.60;98.50
4635;DHT22;2330;48.158;11.816;2023-11-19T07:22:26;9.70;98.50
4635;DHT22;2330;48.158;11.816;2023-11-19T07:24:56;9.70;98.50
4635;DHT22;2330;48.158;11.816;2023-11-19T07:27:23;9.70;98.50
4635;DHT22;2330;48.158;11.816;2023-11-19T07:29:51;9.80;98.50
4635;DHT22;2330;48.158;11.816;2023-11-19T07:32:18;9.80;98.50
4635;DHT22;2330;48.158;11.816;2023-11-19T07:34:45;9.80;98.50
4635;DHT22;2330;48.158;11.816;2023-11-19T07:37:11;9.80;98.50
4635;DHT22;2330;48.158;11.816;2023-11-19T07:39:39;9.90;98.50
4635;DHT22;2330;48.158;11.816;2023-11-19T07:42:08;9.90;98.50
4635;DHT22;2330;48.158;11.816;2023-11-19T07:44:36;9.90;98.50
4635;DHT22;2330;48.158;11.816;2023-11-19T07:47:03;10.00;98.50
4635;DHT22;2330;48.158;11.816;2023-11-19T07:49:30;10.00;98.50
4635;DHT22;2330;48.158;11.816;2023-11-19T07:51:57;10.10;98.50
4635;DHT22;2330;48.158;11.816;2023-11-19T07:54:24;10.10;98.50
4635;DHT22;2330;48.158;11.816;2023-11-19T07:56:51;10.10;98.50
4635;DHT22;2330;48.158;11.816;2023-11-19T07:59:18;10.10;98.50
4635;DHT22;2330;48.158;11.816;2023-11-19T08:01:44;10.10;98.50
4635;DHT22;2330;48.158;11.816;2023-11-19T08:04:11;10.20;98.50
4635;DHT22;2330;48.158;11.816;2023-11-19T08:06:38;10.20;98.50
4635;DHT22;2330;48.158;11.816;2023-11-19T08:09:05;10.20;98.50
4635;DHT22;2330;48.158;11.816;2023-11-19T08:11:33;10.30;98.50
4635;DHT22;2330;48.158;11.816;2023-11-19T08:14:00;10.30;98.50
4635;DHT22;2330;48.158;11.816;2023-11-19T08:16:27;10.30;98.50
4635;DHT22;2330;48.158;11.816;2023-11-19T08:18:54;10.30;98.50
4635;DHT22;2330;48.158;11.816;2023-11-19T08:21:20;10.40;98.50
4635;DHT22;2330;48.158;11.816;2023-11-19T08:23:49;10.40;98.50
4635;DHT22;2330;48.158;11.816;2023-11-19T08:26:16;10.40;98.50
4635;DHT22;2330;48.158;11.816;2023-11-19T08:28:47;10.50;98.50
4635;DHT22;2330;48.158;11.816;2023-11-19T08:31:14;10.50;98.50
4635;DHT22;2330;48.158;11.816;2023-11-19T08:33:41;10.50;98.50
4635;DHT22;2330;48.158;11.816;2023-11-19T08:36:08;10.60;98.50
4635;DHT22;2330;48.158;11.816;2023-11-19T08:38:35;10.60;98.50
4635;DHT22;2330;48.158;11.816;2023-11-19T08:41:02;10.60;98.50
4635;DHT22;2330;48.158;11.816;2023-11-19T08:43:29;10.70;98.50
4635;DHT22;2330;48.158;11.816;2023-11-19T08:45:58;10.70;98.50
4635;DHT22;2330;48.158;11.816;2023-11-19T08:48:25;10.70;98.50
4635;DHT22;2330;48.158;11.816;2023-11-19T08:50:52;10.70;98.50
4635;DHT22;2330;48.158;11.816;2023-11-19T08:53:19;10.70;98.50
4635;DHT22;2330;48.158;11.816;2023-11-19T08:55:46;10.70;98.50
4635;DHT22;2330;48.158;11.816;2023-11-19T08:58:13;10.70;98.50
4635;DHT22;2330;48.158;11.816;2023-11-19T09:00:39;10.70;98.50
4635;DHT22;2330;48.158;11.816;2023-11-19T09:03:07;10.80;98.50
4635;DHT22;2330;48.158;11.816;2023-11-19T09:05:36;10.80;98.50
4635;DHT22;2330;48.158;11.816;2023-11-19T09:08:04;10.70;98.50
4635;DHT22;2330;48.158;11.816;2023-11-19T09:10:31;10.70;98.50
4635;DHT22;2330;48.158;11.816;2023-11-19T09:12:58;10.70;98.50
4635;DHT22;2330;48.158;11.816;2023-11-19T09:15:25;10.80;98.50
4635;DHT22;2330;48.158;11.816;2023-11-19T09:17:52;10.80;98.50
4635;DHT22;2330;48.158;11.816;2023-11-19T09:20:19;10.90;98.50
4635;DHT22;2330;48.158;11.816;2023-11-19T09:22:45;11.00;98.50
4635;DHT22;2330;48.158;11.816;2023-11-19T09:25:12;11.00;98.50
4635;DHT22;2330;48.158;11.816;2023-11-19T09:27:44;11.10;98.50
4635;DHT22;2330;48.158;11.816;2023-11-19T09:30:11;11.20;98.50
4635;DHT22;2330;48.158;11.816;2023-11-19T09:32:38;11.30;98.50
4635;DHT22;2330;48.158;11.816;2023-11-19T09:35:05;11.30;98.50
4635;DHT22;2330;48.158;11.816;2023-11-19T09:37:33;11.40;98.50
4635;DHT22;2330;48.158;11.816;2023-11-19T09:40:00;11.40;98.50
4635;DHT22;2330;48.158;11.816;2023-11-19T09:42:27;11.40;98.50
4635;DHT22;2330;48.158;11.816;2023-11-19T09:44:56;11.50;98.50
4635;DHT22;2330;48.158;11.816;2023-11-19T09:47:25;11.50;98.50
4635;DHT22;2330;48.158;11.816;2023-11-19T09:49:52;11.60;98.50
4635;DHT22;2330;48.158;11.816;2023-11-19T09:52:23;11.70;98.50
4635;DHT22;2330;48.158;11.816;2023-11-19T09:54:51;11.70;98.50
4635;DHT22;2330;48.158;11.816;2023-11-19T09:57:18;11.80;98.50
4635;DHT22;2330;48.158;11.816;2023-11-19T09:59:46;11.80;98.50
4635;DHT22;2330;48.158;11.816;2023-11-19T10:02:14;11.80;98.50
4635;DHT22;2330;48.158;11.816;2023-11-19T10:04:42;11.70;98.50
4635;DHT22;2330;48.158;11.816;2023-11-19T10:07:10;11.60;98.50
4635;DHT22;2330;48.158;11.816;2023-11-19T10:09:37;11.50;98.50
4635;DHT22;2330;48.158;11.816;2023-11-19T10:12:04;11.50;98.50
4635;DHT22;2330;48.158;11.816;2023-11-19T10:14:32;11.60;98.50
4635;DHT22;2330;48.158;11.816;2023-11-19T10:17:01;11.60;98.50
4635;DHT22;2330;48.158;11.816;2023-11-19T10:19:31;11.70;98.50
4635;DHT22;2330;48.158;11.816;2023-11-19T10:22:03;11.80;98.50
4635;DHT22;2330;48.158;11.816;2023-11-19T10:24:34;11.90;98.50
4635;DHT22;2330;48.158;11.816;2023-11-19T10:27:08;12.00;98.50
4635;DHT22;2330;48.158;11.816;2023-11-19T10:29:38;12.10;98.50
4635;DHT22;2330;48.158;11.816;2023-11-19T10:32:06;12.10;98.50
4635;DHT22;2330;48.158;11.816;2023-11-19T10:34:55;12.10;98.50
4635;DHT22;2330;48.158;11.816;2023-11-19T10:37:31;12.30;98.50
4635;DHT22;2330;48.158;11.816;2023-11-19T10:39:59;12.40;98.50
4635;DHT22;2330;48.158;11.816;2023-11-19T10:42:26;12.40;98.50
4635;DHT22;2330;48.158;11.816;2023-11-19T10:44:53;12.50;98.50
4635;DHT22;2330;48.158;11.816;2023-11-19T10:47:22;12.60;98.50
4635;DHT22;2330;48.158;11.816;2023-11-19T10:49:52;12.70;98.50
4635;DHT22;2330;48.158;11.816;2023-11-19T10:52:19;12.80;98.50
4635;DHT22;2330;48.158;11.816;2023-11-19T10:54:50;12.80;98.50
4635;DHT22;2330;48.158;11.816;2023-11-19T10:57:20;12.70;98.50
4635;DHT22;2330;48.158;11.816;2023-11-19T10:59:52;12.70;98.50
4635;DHT22;2330;48.158;11.816;2023-11-19T11:02:24;12.70;98.50
4635;DHT22;2330;48.158;11.816;2023-11-19T11:04:53;12.70;98.50
4635;DHT22;2330;48.158;11.816;2023-11-19T11:07:22;12.70;98.50
4635;DHT22;2330;48.158;11.816;2023-11-19T11:10:05;12.70;98.50
4635;DHT22;2330;48.158;11.816;2023-11-19T11:12:37;12.70;98.50
4635;DHT22;2330;48.158;11.816;2023-11-19T11:15:11;12.70;98.50
4635;DHT22;2330;48.158;11.816;2023-11-19T11:17:41;12.80;98.50
4635;DHT22;2330;48.158;11.816;2023-11-19T11:20:10;12.80;98.50
4635;DHT22;2330;48.158;11.816;2023-11-19T11:22:56;12.80;98.50
4635;DHT22;2330;48.158;11.816;2023-11-19T11:26:30;12.80;98.50
4635;DHT22;2330;48.158;11.816;2023-11-19T11:28:50;12.90;98.50
4635;DHT22;2330;48.158;11.816;2023-11-19T11:34:41;12.90;98.50
4635;DHT22;2330;48.158;11.816;2023-11-19T11:37:33;12.90;98.50
4635;DHT22;2330;48.158;11.816;2023-11-19T11:40:02;13.00;98.50
4635;DHT22;2330;48.158;11.816;2023-11-19T11:42:37;12.90;98.50
4635;DHT22;2330;48.158;11.816;2023-11-19T11:45:09;12.90;98.50
4635;DHT22;2330;48.158;11.816;2023-11-19T11:50:19;12.90;98.50
4635;DHT22;2330;48.158;11.816;2023-11-19T11:55:51;12.90;98.50
4635;DHT22;2330;48.158;11.816;2023-11-19T11:58:26;12.90;98.50
4635;DHT22;2330;48.158;11.816;2023-11-19T12:00:53;13.00;98.50
4635;DHT22;2330;48.158;11.816;2023-11-19T12:03:21;13.00;98.50
4635;DHT22;2330;48.158;11.816;2023-11-19T12:05:49;13.10;98.50
4635;DHT22;2330;48.158;11.816;2023-11-19T12:08:19;13.10;98.50
4635;DHT22;2330;48.158;11.816;2023-11-19T12:10:54;13.20;98.50
4635;DHT22;2330;48.158;11.816;2023-11-19T12:13:28;13.30;98.50
4635;DHT22;2330;48.158;11.816;2023-11-19T12:18:30;13.50;98.50
4635;DHT22;2330;48.158;11.816;2023-11-19T12:21:00;13.50;98.50
4635;DHT22;2330;48.158;11.816;2023-11-19T12:23:28;13.70;98.50
4635;DHT22;2330;48.158;11.816;2023-11-19T12:25:59;13.90;98.50
4635;DHT22;2330;48.158;11.816;2023-11-19T12:28:26;13.90;98.50
4635;DHT22;2330;48.158;11.816;2023-11-19T12:31:09;14.10;98.50
4635;DHT22;2330;48.158;11.816;2023-11-19T12:33:36;14.30;98.50
4635;DHT22;2330;48.158;11.816;2023-11-19T12:36:05;14.40;98.50
4635;DHT22;2330;48.158;11.816;2023-11-19T12:38:32;14.30;98.50
4635;DHT22;2330;48.158;11.816;2023-11-19T12:41:09;14.50;98.50
4635;DHT22;2330;48.158;11.816;2023-11-19T12:43:39;14.80;98.50
4635;DHT22;2330;48.158;11.816;2023-11-19T12:46:20;14.90;98.50
4635;DHT22;2330;48.158;11.816;2023-11-19T12:48:48;14.80;98.50
4635;DHT22;2330;48.158;11.816;2023-11-19T12:51:16;14.70;98.50
4635;DHT22;2330;48.158;11.816;2023-11-19T12:53:52;14.80;98.50
4635;DHT22;2330;48.158;11.816;2023-11-19T12:56:22;14.70;98.50
4635;DHT22;2330;48.158;11.816;2023-11-19T12:58:49;14.50;98.50
4635;DHT22;2330;48.158;11.816;2023-11-19T13:01:18;14.40;98.50
4635;DHT22;2330;48.158;11.816;2023-11-19T13:03:46;14.40;98.50
4635;DHT22;2330;48.158;11.816;2023-11-19T13:06:15;14.30;98.50
4635;DHT22;2330;48.158;11.816;2023-11-19T13:08:49;14.20;98.50
4635;DHT22;2330;48.158;11.816;2023-11-19T13:11:32;14.10;98.50
4635;DHT22;2330;48.158;11.816;2023-11-19T13:14:01;14.00;98.50
4635;DHT22;2330;48.158;11.816;2023-11-19T13:16:30;13.80;98.50
4635;DHT22;2330;48.158;11.816;2023-11-19T13:18:58;13.80;98.50
4635;DHT22;2330;48.158;11.816;2023-11-19T13:21:27;13.70;98.50
4635;DHT22;2330;48.158;11.816;2023-11-19T13:23:54;13.70;98.50
4635;DHT22;2330;48.158;11.816;2023-11-19T13:26:21;13.60;98.50
4635;DHT22;2330;48.158;11.816;2023-11-19T13:28:48;13.50;98.50
4635;DHT22;2330;48.158;11.816;2023-11-19T13:31:16;13.40;98.50
4635;DHT22;2330;48.158;11.816;2023-11-19T13:33:43;13.40;98.50
4635;DHT22;2330;48.158;11.816;2023-11-19T13:36:09;13.40;98.50
4635;DHT22;2330;48.158;11.816;2023-11-19T13:38:41;13.40;98.50
4635;DHT22;2330;48.158;11.816;2023-11-19T13:41:08;13.40;98.50
4635;DHT22;2330;48.158;11.816;2023-11-19T13:43:36;13.40;98.50
4635;DHT22;2330;48.158;11.816;2023-11-19T13:46:04;13.30;98.50
4635;DHT22;2330;48.158;11.816;2023-11-19T13:48:31;13.30;98.50
4635;DHT22;2330;48.158;11.816;2023-11-19T13:50:57;13.30;98.50
4635;DHT22;2330;48.158;11.816;2023-11-19T13:53:24;13.40;98.50
4635;DHT22;2330;48.158;11.816;2023-11-19T13:55:51;13.40;98.50
4635;DHT22;2330;48.158;11.816;2023-11-19T13:58:18;13.30;98.50
4635;DHT22;2330;48.158;11.816;2023-11-19T14:00:44;13.30;98.50
4635;DHT22;2330;48.158;11.816;2023-11-19T14:03:11;13.20;98.50
4635;DHT22;2330;48.158;11.816;2023-11-19T14:05:39;13.20;98.50
4635;DHT22;2330;48.158;11.816;2023-11-19T14:08:08;13.20;98.50
4635;DHT22;2330;48.158;11.816;2023-11-19T14:10:51;13.10;98.50
4635;DHT22;2330;48.158;11.816;2023-11-19T14:13:18;13.10;98.50
4635;DHT22;2330;48.158;11.816;2023-11-19T14:15:44;13.00;98.50
4635;DHT22;2330;48.158;11.816;2023-11-19T14:18:15;13.10;98.50
4635;DHT22;2330;48.158;11.816;2023-11-19T14:20:42;13.10;98.50
4635;DHT22;2330;48.158;11.816;2023-11-19T14:23:09;13.10;98.50
4635;DHT22;2330;48.158;11.816;2023-11-19T14:25:36;13.10;98.50
4635;DHT22;2330;48.158;11.816;2023-11-19T14:28:03;13.10;98.50
4635;DHT22;2330;48.158;11.816;2023-11-19T14:30:32;13.00;98.50
4635;DHT22;2330;48.158;11.816;2023-11-19T14:33:00;13.00;98.50
4635;DHT22;2330;48.158;11.816;2023-11-19T14:35:27;13.00;98.50
4635;DHT22;2330;48.158;11.816;2023-11-19T14:37:56;12.90;98.50
4635;DHT22;2330;48.158;11.816;2023-11-19T14:40:23;13.00;98.50
4635;DHT22;2330;48.158;11.816;2023-11-19T14:43:08;13.00;98.50
4635;DHT22;2330;48.158;11.816;2023-11-19T14:45:38;13.00;98.50
4635;DHT22;2330;48.158;11.816;2023-11-19T14:48:15;13.00;98.50
4635;DHT22;2330;48.158;11.816;2023-11-19T14:50:42;13.00;98.50
4635;DHT22;2330;48.158;11.816;2023-11-19T14:53:08;13.00;98.50
4635;DHT22;2330;48.158;11.816;2023-11-19T14:55:35;12.90;98.50
4635;DHT22;2330;48.158;11.816;2023-11-19T14:58:02;12.90;98.50
4635;DHT22;2330;48.158;11.816;2023-11-19T15:00:36;12.90;98.50
4635;DHT22;2330;48.158;11.816;2023-11-19T15:03:03;12.90;98.50
4635;DHT22;2330;48.158;11.816;2023-11-19T15:05:30;12.90;98.50
4635;DHT22;2330;48.158;11.816;2023-11-19T15:07:57;12.90;98.50
4635;DHT22;2330;48.158;11.816;2023-11-19T15:10:23;12.90;98.50
4635;DHT22;2330;48.158;11.816;2023-11-19T15:12:52;12.70;98.50
4635;DHT22;2330;48.158;11.816;2023-11-19T15:15:20;12.70;98.50
4635;DHT22;2330;48.158;11.816;2023-11-19T15:17:50;12.60;98.50
4635;DHT22;2330;48.158;11.816;2023-11-19T15:20:17;12.60;98.50
4635;DHT22;2330;48.158;11.816;2023-11-19T15:22:45;12.50;98.50
4635;DHT22;2330;48.158;11.816;2023-11-19T15:25:13;12.40;98.50
4635;DHT22;2330;48.158;11.816;2023-11-19T15:27:39;12.40;98.50
4635;DHT22;2330;48.158;11.816;2023-11-19T15:30:07;12.30;98.50
4635;DHT22;2330;48.158;11.816;2023-11-19T15:32:36;12.20;98.50
4635;DHT22;2330;48.158;11.816;2023-11-19T15:35:04;12.10;98.50
4635;DHT22;2330;48.158;11.816;2023-11-19T15:37:31;12.10;98.50
4635;DHT22;2330;48.158;11.816;2023-11-19T15:39:57;12.00;98.50
4635;DHT22;2330;48.158;11.816;2023-11-19T15:42:25;12.00;98.50
4635;DHT22;2330;48.158;11.816;2023-11-19T15:44:51;12.00;98.50
4635;DHT22;2330;48.158;11.816;2023-11-19T15:47:18;11.90;98.50
4635;DHT22;2330;48.158;11.816;2023-11-19T15:49:45;11.90;98.50
4635;DHT22;2330;48.158;11.816;2023-11-19T15:52:12;11.90;98.50
4635;DHT22;2330;48.158;11.816;2023-11-19T15:54:41;11.90;98.50
4635;DHT22;2330;48.158;11.816;2023-11-19T15:57:08;11.90;98.50
4635;DHT22;2330;48.158;11.816;2023-11-19T15:59:35;11.90;98.50
4635;DHT22;2330;48.158;11.816;2023-11-19T16:02:01;11.80;98.50
4635;DHT22;2330;48.158;11.816;2023-11-19T16:04:28;11.70;98.50
4635;DHT22;2330;48.158;11.816;2023-11-19T16:06:55;11.60;98.50
4635;DHT22;2330;48.158;11.816;2023-11-19T16:09:22;11.50;98.50
4635;DHT22;2330;48.158;11.816;2023-11-19T16:11:49;11.40;98.50
4635;DHT22;2330;48.158;11.816;2023-11-19T16:14:25;11.40;98.50
4635;DHT22;2330;48.158;11.816;2023-11-19T16:16:52;11.40;98.50